Viking Merlin — 9V5029 — position and weather

sailwx.info

Track history (hours):
 
Tides and Currents Weather Stations Pressure Air Temp Water Temp Dewpoint Dewpoint Depression Visibility Wind Speed Wind Dir Waves Ship Positions

Viking Merlin

Last reported at 2017-Nov-17 22:26 UTC. Time now 2017-Nov-23 01:37 UTC.
Position N 19°14' W 095°42'.

Length 177 m; draft 10.1 m.

Type: Cargo ship. MMSI: 563004700.

Date/timePositionNaut miles runAvg speedWind from/ knotsBaromVisibWave heightAir tempDewpointWater temp
2017-Nov-17 22:26N 19°14' W 095°42'715.5
2017-Nov-17 22:00N 19°12' W 095°48'816.2
2017-Nov-17 21:30N 19°12' W 095°57'713.7
2017-Nov-17 21:00N 19°11' W 096°04'4 7.1
2017-Nov-17 20:28N 19°13' W 096°08'0 0.3
2017-Nov-17 19:58N 19°13' W 096°08'0 0.0
2017-Nov-17 19:28N 19°13' W 096°08'0 0.0
2017-Nov-17 18:58N 19°13' W 096°08'0 0.0
2017-Nov-17 18:28N 19°13' W 096°08'0 0.0
2017-Nov-17 17:58N 19°13' W 096°08'0 0.0
2017-Nov-17 17:28N 19°13' W 096°08'0 0.0
2017-Nov-17 16:58N 19°13' W 096°08'0 0.0
2017-Nov-17 16:25N 19°13' W 096°08'0 0.0
2017-Nov-17 15:58N 19°13' W 096°08'0 0.0
2017-Nov-17 15:28N 19°13' W 096°08'0 0.0
2017-Nov-17 14:58N 19°13' W 096°08'0 0.0
2017-Nov-17 14:28N 19°13' W 096°08'0 0.1
2017-Nov-17 14:00N 19°13' W 096°08'0 0.2
2017-Nov-17 13:30N 19°13' W 096°08'0 0.0
2017-Nov-17 13:00N 19°13' W 096°08'0 0.0
2017-Nov-17 12:30N 19°13' W 096°08'0 0.0
2017-Nov-17 12:00N 19°13' W 096°08'0 0.0
2017-Nov-17 11:30N 19°13' W 096°08'0 0.0
2017-Nov-17 11:00N 19°13' W 096°08'0 0.0
2017-Nov-17 10:27N 19°13' W 096°08'0 0.0
2017-Nov-17 10:00N 19°13' W 096°08'0 0.0
2017-Nov-17 09:30N 19°13' W 096°08'0 0.0
2017-Nov-17 09:00N 19°13' W 096°08'0 0.0
2017-Nov-17 08:27N 19°13' W 096°08'0 0.0
2017-Nov-17 08:00N 19°13' W 096°08'0 0.0
2017-Nov-17 07:27N 19°13' W 096°08'0 0.0
2017-Nov-17 07:00N 19°13' W 096°08'0 0.0
2017-Nov-17 06:30N 19°13' W 096°08'0 0.0
2017-Nov-17 05:57N 19°13' W 096°08'0 0.0
2017-Nov-17 05:27N 19°13' W 096°08'0 0.0
2017-Nov-17 05:00N 19°13' W 096°08'0 0.0
2017-Nov-17 04:27N 19°13' W 096°08'0 0.0
2017-Nov-17 03:54N 19°13' W 096°08'0 0.0
2017-Nov-17 03:30N 19°13' W 096°08'0 0.0
2017-Nov-17 03:00N 19°13' W 096°08'0 0.0
2017-Nov-17 02:18N 19°13' W 096°08'0 0.0
2017-Nov-17 01:57N 19°13' W 096°08'0 0.0
2017-Nov-17 01:27N 19°13' W 096°08'0 0.0
2017-Nov-17 01:00N 19°13' W 096°08'0 0.0
2017-Nov-17 00:30N 19°13' W 096°08'0 0.0
2017-Nov-17 00:00N 19°13' W 096°08'0 0.0
2017-Nov-16 23:30N 19°13' W 096°08'0 0.0
2017-Nov-16 22:42N 19°13' W 096°08'0 0.0
2017-Nov-16 22:15N 19°13' W 096°08'0 0.0
2017-Nov-16 22:00N 19°13' W 096°08'0 0.0
2017-Nov-16 21:27N 19°13' W 096°08'0 0.0
2017-Nov-16 20:57N 19°13' W 096°08'0 0.0
2017-Nov-16 20:30N 19°13' W 096°08'0 0.0
2017-Nov-16 19:57N 19°13' W 096°08'0 0.0
2017-Nov-16 19:30N 19°13' W 096°08'0 0.0
2017-Nov-16 18:51N 19°13' W 096°08'0 0.0
2017-Nov-16 18:30N 19°13' W 096°08'0 0.0
2017-Nov-16 18:00N 19°13' W 096°08'0 0.0
2017-Nov-16 17:30N 19°13' W 096°08'0 0.4
2017-Nov-16 17:00N 19°13' W 096°08'4 8.3
2017-Nov-16 16:30N 19°11' W 096°04'4 7.4
2017-Nov-16 16:00N 19°08' W 096°01'1 1.4
2017-Nov-16 15:26N 19°08' W 096°01'0 0.0
2017-Nov-16 14:56N 19°08' W 096°01'0 0.0
2017-Nov-16 14:26N 19°08' W 096°01'0 0.0
2017-Nov-16 13:56N 19°07' W 096°01'0 0.0
2017-Nov-16 13:26N 19°07' W 096°01'0 0.0
2017-Nov-16 12:56N 19°07' W 096°01'0 0.0
2017-Nov-16 12:26N 19°07' W 096°01'0 0.0
2017-Nov-16 11:56N 19°07' W 096°01'0 0.0
2017-Nov-16 11:26N 19°07' W 096°01'0 0.0
2017-Nov-16 10:56N 19°07' W 096°01'0 0.0
2017-Nov-16 10:26N 19°07' W 096°01'0 0.0
2017-Nov-16 09:56N 19°07' W 096°01'0 0.0
2017-Nov-16 09:26N 19°07' W 096°01'0 0.0
2017-Nov-16 08:56N 19°07' W 096°01'0 0.0
2017-Nov-16 08:20N 19°07' W 096°01'0 0.0
2017-Nov-16 07:56N 19°07' W 096°01'0 0.0
2017-Nov-16 07:26N 19°08' W 096°01'0 0.0
2017-Nov-16 06:56N 19°08' W 096°01'0 0.1
2017-Nov-16 06:26N 19°07' W 096°01'0 0.0
2017-Nov-16 05:56N 19°08' W 096°01'0 0.0
2017-Nov-16 05:26N 19°08' W 096°01'0 0.0
2017-Nov-16 04:56N 19°07' W 096°01'0 0.0
2017-Nov-16 04:26N 19°08' W 096°01'0 0.0
2017-Nov-16 03:56N 19°08' W 096°01'0 0.0
2017-Nov-16 03:26N 19°07' W 096°01'0 0.0
2017-Nov-16 02:56N 19°07' W 096°01'0 0.0
2017-Nov-16 02:26N 19°07' W 096°01'0 0.0
2017-Nov-16 01:50N 19°07' W 096°01'0 0.0
2017-Nov-16 01:26N 19°07' W 096°01'0 0.0
2017-Nov-16 00:56N 19°07' W 096°01'0 0.0
2017-Nov-16 00:26N 19°07' W 096°01'0 0.0
2017-Nov-15 23:56N 19°07' W 096°01'0 0.0
2017-Nov-15 23:26N 19°08' W 096°01'0 0.0
2017-Nov-15 22:50N 19°07' W 096°01'0 0.0
2017-Nov-15 22:26N 19°08' W 096°01'0 0.0
2017-Nov-15 21:56N 19°08' W 096°01'0 0.0
2017-Nov-15 21:26N 19°07' W 096°01'0 0.0
2017-Nov-15 20:50N 19°07' W 096°01'0 0.0
2017-Nov-15 20:26N 19°07' W 096°01'0 0.0
2017-Nov-15 19:56N 19°07' W 096°01'0 0.0
2017-Nov-15 19:26N 19°07' W 096°01'0 0.0
2017-Nov-15 18:56N 19°07' W 096°01'0 0.0
2017-Nov-15 18:26N 19°07' W 096°01'0 0.0
2017-Nov-15 17:56N 19°08' W 096°01'0 0.0
2017-Nov-15 17:26N 19°08' W 096°01'0 0.0
2017-Nov-15 16:56N 19°08' W 096°01'0 0.0
2017-Nov-15 16:26N 19°08' W 096°01'0 0.0
2017-Nov-15 15:56N 19°08' W 096°01'0 0.0
2017-Nov-15 15:26N 19°08' W 096°01'0 0.0
2017-Nov-15 14:56N 19°08' W 096°01'0 0.0
2017-Nov-15 14:20N 19°08' W 096°01'0 0.1
2017-Nov-15 13:56N 19°08' W 096°01'0 0.0
2017-Nov-15 13:26N 19°08' W 096°01'0 0.1
2017-Nov-15 12:56N 19°08' W 096°01'0 0.1
2017-Nov-15 12:20N 19°08' W 096°01'0 0.0
2017-Nov-15 11:50N 19°07' W 096°01'0 0.0
2017-Nov-15 11:26N 19°07' W 096°01'0 0.0
2017-Nov-15 10:56N 19°07' W 096°01'0 0.0
2017-Nov-15 10:26N 19°07' W 096°01'0 0.0
2017-Nov-15 09:50N 19°07' W 096°01'0 0.0
2017-Nov-15 09:14N 19°07' W 096°01'0 0.0
2017-Nov-15 08:56N 19°07' W 096°01'0 0.0
2017-Nov-15 08:26N 19°07' W 096°01'0 0.0
2017-Nov-15 07:56N 19°07' W 096°01'0 0.0
2017-Nov-15 07:26N 19°07' W 096°01'0 0.0
2017-Nov-15 06:50N 19°07' W 096°01'0 0.1
2017-Nov-15 06:20N 19°07' W 096°01'0 0.0
2017-Nov-15 05:56N 19°07' W 096°01'0 0.0
2017-Nov-15 05:20N 19°07' W 096°01'0 0.0
2017-Nov-15 04:50N 19°07' W 096°01'0 0.0
2017-Nov-15 04:26N 19°07' W 096°01'0 0.0
2017-Nov-15 03:56N 19°07' W 096°01'0 0.0
2017-Nov-15 03:26N 19°07' W 096°01'0 0.0
2017-Nov-15 02:56N 19°07' W 096°01'0 0.0
2017-Nov-15 02:26N 19°07' W 096°01'0 0.0
2017-Nov-15 01:44N 19°07' W 096°01'0 0.1
2017-Nov-15 01:26N 19°07' W 096°01'0 0.0
2017-Nov-15 00:50N 19°07' W 096°01'0 0.0
2017-Nov-15 00:26N 19°07' W 096°01'0 0.0
2017-Nov-14 23:56N 19°07' W 096°01'0 0.0
2017-Nov-14 23:26N 19°07' W 096°01'0 0.0
2017-Nov-14 22:56N 19°07' W 096°01'0 0.0
2017-Nov-14 22:26N 19°07' W 096°01'0 0.0
2017-Nov-14 21:56N 19°07' W 096°01'0 0.0
2017-Nov-14 21:26N 19°07' W 096°01'0 0.0
2017-Nov-14 20:56N 19°07' W 096°01'0 0.0
2017-Nov-14 20:26N 19°07' W 096°01'0 0.0
2017-Nov-14 19:56N 19°07' W 096°01'0 0.0
2017-Nov-14 19:26N 19°07' W 096°01'0 0.0
2017-Nov-14 18:56N 19°07' W 096°01'0 0.0
2017-Nov-14 18:26N 19°07' W 096°01'0 0.0
2017-Nov-14 17:56N 19°07' W 096°01'0 0.0
2017-Nov-14 17:26N 19°07' W 096°01'0 0.0
2017-Nov-14 16:56N 19°07' W 096°01'0 0.0
2017-Nov-14 16:26N 19°07' W 096°01'0 0.0
2017-Nov-14 15:56N 19°08' W 096°01'0 0.0
2017-Nov-14 15:26N 19°08' W 096°01'0 0.0
2017-Nov-14 14:56N 19°08' W 096°01'0 0.0
2017-Nov-14 14:26N 19°08' W 096°01'0 0.0
2017-Nov-14 13:56N 19°08' W 096°01'0 0.0
2017-Nov-14 13:26N 19°08' W 096°01'0 0.0
2017-Nov-14 12:56N 19°08' W 096°01'0 0.0
2017-Nov-14 12:26N 19°07' W 096°01'0 0.1
2017-Nov-14 11:44N 19°07' W 096°01'0 0.1
2017-Nov-14 11:26N 19°07' W 096°01'0 0.1
2017-Nov-14 10:56N 19°07' W 096°01'0 0.0
2017-Nov-14 10:08N 19°07' W 096°01'0 0.0
2017-Nov-14 09:56N 19°07' W 096°01'0 0.0
2017-Nov-14 09:26N 19°07' W 096°01'0 0.0
2017-Nov-14 08:56N 19°07' W 096°01'0 0.0
2017-Nov-14 08:26N 19°07' W 096°01'0 0.0
2017-Nov-14 07:50N 19°07' W 096°01'0 0.0
2017-Nov-14 07:26N 19°07' W 096°01'0 0.0
2017-Nov-14 06:56N 19°07' W 096°01'0 0.0
2017-Nov-14 06:26N 19°07' W 096°01'0 0.1
2017-Nov-14 05:56N 19°07' W 096°01'0 0.1
2017-Nov-14 05:26N 19°07' W 096°01'0 0.0
2017-Nov-14 04:56N 19°07' W 096°01'0 0.0
2017-Nov-14 04:20N 19°07' W 096°01'0 0.0
2017-Nov-14 03:56N 19°07' W 096°01'0 0.0
2017-Nov-14 03:26N 19°07' W 096°01'0 0.0
2017-Nov-14 02:56N 19°07' W 096°01'0 0.0
2017-Nov-14 02:26N 19°07' W 096°01'0 0.0
2017-Nov-14 01:32N 19°07' W 096°01'0 0.1
2017-Nov-14 01:26N 19°07' W 096°01'0 0.0
2017-Nov-14 00:50N 19°07' W 096°01'0 0.1
2017-Nov-14 00:26N 19°07' W 096°01'0 0.1
2017-Nov-13 23:56N 19°07' W 096°01'0 0.0
2017-Nov-13 22:50N 19°07' W 096°01'0 0.0
2017-Nov-13 22:26N 19°07' W 096°01'0 0.0
2017-Nov-13 21:56N 19°07' W 096°01'0 0.0
2017-Nov-13 01:56N 19°07' W 096°01'0 0.0
2017-Nov-13 01:26N 19°07' W 096°01'0 0.1
2017-Nov-13 00:56N 19°07' W 096°01'0 0.0
2017-Nov-13 00:26N 19°07' W 096°01'0 0.0
2017-Nov-12 23:56N 19°07' W 096°01'0 0.0
2017-Nov-12 23:26N 19°07' W 096°01'0 0.0
2017-Nov-12 22:56N 19°07' W 096°01'0 0.0
2017-Nov-12 22:26N 19°07' W 096°01'0 0.0
2017-Nov-12 21:50N 19°07' W 096°01'0 0.0
2017-Nov-12 21:26N 19°07' W 096°01'0 0.0
2017-Nov-12 20:56N 19°07' W 096°01'0 0.0
2017-Nov-12 20:26N 19°07' W 096°01'0 0.0
2017-Nov-12 19:56N 19°07' W 096°01'0 0.0
2017-Nov-12 19:26N 19°07' W 096°01'0 0.0
2017-Nov-12 18:56N 19°07' W 096°01'0 0.0
2017-Nov-12 18:26N 19°07' W 096°01'0 0.0
2017-Nov-12 17:56N 19°08' W 096°01'0 0.0
2017-Nov-12 17:20N 19°08' W 096°01'0 0.0
2017-Nov-12 16:56N 19°08' W 096°01'0 0.0
2017-Nov-12 16:26N 19°08' W 096°01'0 0.0
2017-Nov-12 15:56N 19°08' W 096°01'0 0.0
2017-Nov-12 15:26N 19°08' W 096°01'0 0.0
2017-Nov-12 14:56N 19°08' W 096°01'0 0.0
2017-Nov-12 14:20N 19°08' W 096°01'0 0.0
2017-Nov-12 13:56N 19°08' W 096°01'0 0.0
2017-Nov-12 13:20N 19°08' W 096°01'0 0.0
2017-Nov-12 12:56N 19°08' W 096°01'0 0.0
2017-Nov-12 12:26N 19°08' W 096°01'0 0.0
2017-Nov-12 11:56N 19°07' W 096°01'0 0.1
2017-Nov-12 11:26N 19°07' W 096°01'0 0.0
2017-Nov-12 10:56N 19°07' W 096°01'0 0.0
2017-Nov-12 10:26N 19°07' W 096°01'0 0.0
2017-Nov-12 09:56N 19°07' W 096°01'0 0.0
2017-Nov-12 09:26N 19°07' W 096°01'0 0.0
2017-Nov-12 08:56N 19°07' W 096°01'0 0.0
2017-Nov-12 08:26N 19°07' W 096°01'0 0.0
2017-Nov-12 07:56N 19°07' W 096°01'0 0.0
2017-Nov-12 07:26N 19°07' W 096°01'0 0.0
2017-Nov-12 06:56N 19°07' W 096°01'0 0.0
2017-Nov-12 06:26N 19°07' W 096°01'0 0.0
2017-Nov-12 05:56N 19°07' W 096°01'0 0.0
2017-Nov-12 05:26N 19°07' W 096°01'0 0.0
2017-Nov-12 04:56N 19°07' W 096°01'0 0.0
2017-Nov-12 04:26N 19°07' W 096°01'0 0.0
2017-Nov-12 03:56N 19°07' W 096°01'0 0.0
2017-Nov-12 03:26N 19°07' W 096°01'0 0.0
2017-Nov-12 02:50N 19°07' W 096°01'0 0.0
2017-Nov-12 02:20N 19°07' W 096°01'0 0.0
2017-Nov-12 01:56N 19°07' W 096°01'0 0.0
2017-Nov-12 01:26N 19°07' W 096°01'0 0.0
2017-Nov-12 00:56N 19°07' W 096°01'0 0.0
2017-Nov-12 00:26N 19°07' W 096°01'0 0.0
2017-Nov-11 23:56N 19°07' W 096°01'0 0.0
2017-Nov-11 23:26N 19°07' W 096°01'0 0.0
2017-Nov-11 22:56N 19°07' W 096°01'0 0.0
2017-Nov-11 22:26N 19°07' W 096°01'0 0.0
2017-Nov-11 21:56N 19°07' W 096°01'0 0.0
2017-Nov-11 21:26N 19°07' W 096°01'0 0.0
2017-Nov-11 20:56N 19°07' W 096°01'0 0.0
2017-Nov-11 20:26N 19°07' W 096°01'0 0.0
2017-Nov-11 19:56N 19°07' W 096°01'0 0.0
2017-Nov-11 19:26N 19°07' W 096°01'0 0.0
2017-Nov-11 18:56N 19°07' W 096°01'0 0.0
2017-Nov-11 18:14N 19°07' W 096°01'0 0.0
2017-Nov-11 17:56N 19°07' W 096°01'0 0.0
2017-Nov-11 17:26N 19°07' W 096°01'0 0.0
2017-Nov-11 16:50N 19°08' W 096°01'0 0.0
2017-Nov-11 16:20N 19°08' W 096°01'0 0.0
2017-Nov-11 15:56N 19°08' W 096°01'0 0.0
2017-Nov-11 15:26N 19°08' W 096°01'0 0.0
2017-Nov-11 14:56N 19°08' W 096°01'0 0.0
2017-Nov-11 14:26N 19°08' W 096°01'0 0.0
2017-Nov-11 13:56N 19°08' W 096°01'0 0.0
2017-Nov-11 13:26N 19°08' W 096°01'0 0.0
2017-Nov-11 12:56N 19°08' W 096°01'0 0.0
2017-Nov-11 12:26N 19°08' W 096°01'0 0.0
2017-Nov-11 11:56N 19°08' W 096°01'0 0.0
2017-Nov-11 11:26N 19°08' W 096°01'0 0.0
2017-Nov-11 10:56N 19°08' W 096°01'0 0.0
2017-Nov-11 10:26N 19°07' W 096°01'0 0.0
2017-Nov-11 09:56N 19°07' W 096°01'0 0.0
2017-Nov-11 09:20N 19°08' W 096°01'0 0.0
2017-Nov-11 08:56N 19°08' W 096°01'0 0.0
2017-Nov-11 08:20N 19°08' W 096°01'0 0.0
2017-Nov-11 07:44N 19°08' W 096°01'0 0.0
2017-Nov-11 07:26N 19°07' W 096°01'0 0.0
2017-Nov-11 06:56N 19°08' W 096°01'0 0.0
2017-Nov-11 06:26N 19°08' W 096°01'0 0.0
2017-Nov-11 05:56N 19°07' W 096°01'0 0.0
2017-Nov-11 05:26N 19°07' W 096°01'0 0.0
2017-Nov-11 04:56N 19°07' W 096°01'0 0.0
2017-Nov-11 04:26N 19°07' W 096°01'0 0.0
2017-Nov-11 03:56N 19°07' W 096°01'0 0.0
2017-Nov-11 03:26N 19°07' W 096°01'0 0.0
2017-Nov-11 02:56N 19°07' W 096°01'0 0.0
2017-Nov-11 02:26N 19°07' W 096°01'0 0.0
2017-Nov-11 01:56N 19°07' W 096°01'0 0.0
2017-Nov-11 01:26N 19°07' W 096°01'0 0.0
2017-Nov-11 00:56N 19°07' W 096°01'0 0.0
2017-Nov-11 00:26N 19°07' W 096°01'0 0.0
2017-Nov-10 23:56N 19°07' W 096°01'0 0.0
2017-Nov-10 23:20N 19°07' W 096°01'0 0.0
2017-Nov-10 22:56N 19°07' W 096°01'0 0.0
2017-Nov-10 22:26N 19°07' W 096°01'0 0.0
2017-Nov-10 21:55N 19°07' W 096°01'0 0.0
2017-Nov-10 21:26N 19°07' W 096°01'0 0.0
2017-Nov-10 20:50N 19°07' W 096°01'0 0.0
2017-Nov-10 20:26N 19°07' W 096°01'0 0.0
2017-Nov-10 19:56N 19°07' W 096°01'0 0.0
2017-Nov-10 19:26N 19°07' W 096°01'0 0.0
2017-Nov-10 18:44N 19°07' W 096°01'0 0.0
2017-Nov-10 18:23N 19°07' W 096°01'0 0.0
2017-Nov-10 17:56N 19°07' W 096°01'0 0.0
2017-Nov-10 17:26N 19°07' W 096°01'0 0.0
2017-Nov-10 16:56N 19°07' W 096°01'0 0.0
2017-Nov-10 16:26N 19°08' W 096°01'0 0.0
2017-Nov-10 15:55N 19°08' W 096°01'0 0.0
2017-Nov-10 15:26N 19°07' W 096°01'0 0.0
2017-Nov-10 14:56N 19°07' W 096°01'0 0.0
2017-Nov-10 14:26N 19°07' W 096°01'0 0.0
2017-Nov-10 13:56N 19°07' W 096°01'0 0.0
2017-Nov-10 13:20N 19°07' W 096°01'0 0.0
2017-Nov-10 12:56N 19°07' W 096°01'0 0.0
2017-Nov-10 12:26N 19°07' W 096°01'0 0.0
2017-Nov-10 11:56N 19°07' W 096°01'0 0.0
2017-Nov-10 11:26N 19°07' W 096°01'0 0.0
2017-Nov-10 10:56N 19°07' W 096°01'0 0.1
2017-Nov-10 10:19N 19°08' W 096°01'0 0.1
2017-Nov-10 09:56N 19°07' W 096°01'0 0.0
2017-Nov-10 09:26N 19°08' W 096°01'0 0.0
2017-Nov-10 08:56N 19°07' W 096°01'0 0.0
2017-Nov-10 08:26N 19°07' W 096°01'0 0.0
2017-Nov-10 07:56N 19°07' W 096°01'0 0.0
2017-Nov-10 07:26N 19°07' W 096°01'0 0.0
2017-Nov-10 06:56N 19°07' W 096°01'0 0.0
2017-Nov-10 06:26N 19°07' W 096°01'0 0.0
2017-Nov-10 05:50N 19°07' W 096°01'0 0.0
2017-Nov-10 05:26N 19°07' W 096°01'0 0.0
2017-Nov-10 04:50N 19°07' W 096°01'0 0.0
2017-Nov-10 04:26N 19°07' W 096°01'0 0.0
2017-Nov-10 03:55N 19°07' W 096°01'0 0.0
2017-Nov-10 03:25N 19°08' W 096°01'0 0.0
2017-Nov-10 02:55N 19°07' W 096°01'0 0.0
2017-Nov-10 02:25N 19°07' W 096°01'0 0.1
2017-Nov-10 01:56N 19°08' W 096°01'0 0.0
2017-Nov-10 01:26N 19°08' W 096°01'0 0.0
2017-Nov-10 00:55N 19°08' W 096°01'0 0.0
2017-Nov-10 00:25N 19°08' W 096°01'0 0.0
2017-Nov-09 23:56N 19°08' W 096°01'0 0.0
2017-Nov-09 23:26N 19°08' W 096°01'0 0.0
2017-Nov-09 22:55N 19°08' W 096°01'0 0.0
2017-Nov-09 22:25N 19°08' W 096°01'0 0.0
2017-Nov-09 21:55N 19°08' W 096°01'0 0.0
2017-Nov-09 21:25N 19°08' W 096°01'0 0.0
2017-Nov-09 20:56N 19°08' W 096°01'0 0.0
2017-Nov-09 20:20N 19°08' W 096°01'0 0.0
2017-Nov-09 19:56N 19°08' W 096°01'0 0.0
2017-Nov-09 19:25N 19°08' W 096°01'0 0.0
2017-Nov-09 18:55N 19°08' W 096°01'0 0.0
2017-Nov-09 18:25N 19°08' W 096°01'0 0.0
2017-Nov-09 17:55N 19°08' W 096°01'0 0.0
2017-Nov-09 17:25N 19°08' W 096°01'0 0.0
2017-Nov-09 16:55N 19°08' W 096°01'0 0.0
2017-Nov-09 16:25N 19°08' W 096°01'0 0.0
2017-Nov-09 15:55N 19°08' W 096°01'0 0.0
2017-Nov-09 15:25N 19°08' W 096°01'0 0.1
2017-Nov-09 14:55N 19°08' W 096°01'0 0.0
2017-Nov-09 14:25N 19°08' W 096°01'0 0.0
2017-Nov-09 13:55N 19°08' W 096°01'0 0.0
2017-Nov-09 13:19N 19°08' W 096°01'0 0.0
2017-Nov-09 12:55N 19°08' W 096°01'0 0.0
2017-Nov-09 12:19N 19°08' W 096°01'0 0.0
2017-Nov-09 11:55N 19°08' W 096°01'0 0.0
2017-Nov-09 11:25N 19°08' W 096°01'0 0.0
2017-Nov-09 10:55N 19°08' W 096°01'0 0.0
2017-Nov-09 10:25N 19°08' W 096°01'0 0.0
2017-Nov-09 09:55N 19°08' W 096°01'0 0.0
2017-Nov-09 09:25N 19°08' W 096°01'0 0.0
2017-Nov-09 08:55N 19°08' W 096°01'0 0.0
2017-Nov-09 08:25N 19°08' W 096°01'0 0.0
2017-Nov-09 07:56N 19°08' W 096°01'0 0.0
2017-Nov-09 07:25N 19°08' W 096°01'0 0.1
2017-Nov-09 06:55N 19°08' W 096°01'0 0.0
2017-Nov-09 06:25N 19°08' W 096°01'0 0.0
2017-Nov-09 05:55N 19°08' W 096°01'0 0.0
2017-Nov-09 05:25N 19°08' W 096°01'0 0.0
2017-Nov-09 04:55N 19°08' W 096°01'0 0.0
2017-Nov-09 04:25N 19°08' W 096°01'0 0.0
2017-Nov-09 03:49N 19°08' W 096°01'0 0.0
2017-Nov-09 03:25N 19°08' W 096°01'0 0.1
2017-Nov-09 02:55N 19°08' W 096°01'0 0.1
2017-Nov-09 02:25N 19°08' W 096°01'0 0.1
2017-Nov-09 01:55N 19°08' W 096°01'0 0.0
2017-Nov-09 01:25N 19°08' W 096°01'0 0.0
2017-Nov-09 00:55N 19°08' W 096°01'0 0.0
2017-Nov-09 00:25N 19°08' W 096°01'0 0.0
2017-Nov-08 23:55N 19°08' W 096°01'0 0.0
2017-Nov-08 23:19N 19°08' W 096°01'0 0.0
2017-Nov-08 22:55N 19°08' W 096°01'0 0.0
2017-Nov-08 22:25N 19°08' W 096°01'0 0.0
2017-Nov-08 21:55N 19°08' W 096°01'0 0.0
2017-Nov-08 21:25N 19°08' W 096°01'0 0.0
2017-Nov-08 20:55N 19°08' W 096°01'0 0.0
2017-Nov-08 20:25N 19°08' W 096°01'0 0.0
2017-Nov-08 19:55N 19°08' W 096°01'0 0.0
2017-Nov-08 19:25N 19°08' W 096°01'0 0.0
2017-Nov-08 18:55N 19°08' W 096°01'0 0.0
2017-Nov-08 18:25N 19°08' W 096°01'0 0.0
2017-Nov-08 17:55N 19°08' W 096°01'0 0.0
2017-Nov-08 17:25N 19°08' W 096°01'0 0.0
2017-Nov-08 16:55N 19°08' W 096°01'0 0.0
2017-Nov-08 16:25N 19°08' W 096°01'0 0.0
2017-Nov-08 15:55N 19°08' W 096°01'0 0.0
2017-Nov-08 15:28N 19°08' W 096°01'0 0.0
2017-Nov-08 14:55N 19°08' W 096°01'0 0.1
2017-Nov-08 14:25N 19°08' W 096°01'0 0.1
2017-Nov-08 13:55N 19°08' W 096°01'0 0.0
2017-Nov-08 13:25N 19°08' W 096°01'0 0.0
2017-Nov-08 12:55N 19°08' W 096°01'0 0.0
2017-Nov-08 12:25N 19°08' W 096°01'0 0.0
2017-Nov-08 11:55N 19°08' W 096°01'0 0.0
2017-Nov-08 11:25N 19°08' W 096°01'0 0.0
2017-Nov-08 10:55N 19°08' W 096°01'0 0.1
2017-Nov-08 10:25N 19°08' W 096°01'0 0.0
2017-Nov-08 09:55N 19°08' W 096°01'0 0.0
2017-Nov-08 09:25N 19°08' W 096°01'0 0.0
2017-Nov-08 08:55N 19°08' W 096°01'0 0.0
2017-Nov-08 08:25N 19°08' W 096°01'0 0.2
2017-Nov-08 07:55N 19°08' W 096°01'0 0.1
2017-Nov-08 07:25N 19°08' W 096°01'0 0.0
2017-Nov-08 06:55N 19°08' W 096°01'0 0.0
2017-Nov-08 06:25N 19°08' W 096°01'0 0.0
2017-Nov-08 05:55N 19°08' W 096°01'0 0.0
2017-Nov-08 05:25N 19°08' W 096°01'0 0.0
2017-Nov-08 04:55N 19°08' W 096°01'0 0.0
2017-Nov-08 04:25N 19°08' W 096°01'0 0.0
2017-Nov-08 03:55N 19°08' W 096°01'0 0.0
2017-Nov-08 03:25N 19°08' W 096°01'0 0.0
2017-Nov-08 02:55N 19°08' W 096°01'0 0.0
2017-Nov-08 02:25N 19°08' W 096°01'0 0.0
2017-Nov-08 01:49N 19°08' W 096°01'0 0.0
2017-Nov-08 01:25N 19°08' W 096°01'0 0.0
2017-Nov-08 00:55N 19°08' W 096°01'0 0.0
2017-Nov-08 00:25N 19°08' W 096°01'0 0.0
2017-Nov-07 23:55N 19°08' W 096°01'0 0.0
2017-Nov-07 23:25N 19°08' W 096°01'0 0.0
2017-Nov-07 22:55N 19°08' W 096°01'  
Track history (hours):
 
Tides and Currents Weather Stations Pressure Air Temp Water Temp Dewpoint Dewpoint Depression Visibility Wind Speed Wind Dir Waves Ship Positions

Viking Merlin

Last reported at 2017-Nov-17 22:26 UTC. Time now 2017-Nov-23 01:37 UTC.
Position N 19°14' W 095°42'.

Length 177 m; draft 10.1 m.

Type: Cargo ship. MMSI: 563004700.

Date/timePositionNaut miles runAvg speedWind from/ knotsBaromVisibWave heightAir tempDewpointWater temp
2017-Nov-17 22:26N 19°14' W 095°42'715.5
2017-Nov-17 22:00N 19°12' W 095°48'816.2
2017-Nov-17 21:30N 19°12' W 095°57'713.7
2017-Nov-17 21:00N 19°11' W 096°04'4 7.1
2017-Nov-17 20:28N 19°13' W 096°08'0 0.3
2017-Nov-17 19:58N 19°13' W 096°08'0 0.0
2017-Nov-17 19:28N 19°13' W 096°08'0 0.0
2017-Nov-17 18:58N 19°13' W 096°08'0 0.0
2017-Nov-17 18:28N 19°13' W 096°08'0 0.0
2017-Nov-17 17:58N 19°13' W 096°08'0 0.0
2017-Nov-17 17:28N 19°13' W 096°08'0 0.0
2017-Nov-17 16:58N 19°13' W 096°08'0 0.0
2017-Nov-17 16:25N 19°13' W 096°08'0 0.0
2017-Nov-17 15:58N 19°13' W 096°08'0 0.0
2017-Nov-17 15:28N 19°13' W 096°08'0 0.0
2017-Nov-17 14:58N 19°13' W 096°08'0 0.0
2017-Nov-17 14:28N 19°13' W 096°08'0 0.1
2017-Nov-17 14:00N 19°13' W 096°08'0 0.2
2017-Nov-17 13:30N 19°13' W 096°08'0 0.0
2017-Nov-17 13:00N 19°13' W 096°08'0 0.0
2017-Nov-17 12:30N 19°13' W 096°08'0 0.0
2017-Nov-17 12:00N 19°13' W 096°08'0 0.0
2017-Nov-17 11:30N 19°13' W 096°08'0 0.0
2017-Nov-17 11:00N 19°13' W 096°08'0 0.0
2017-Nov-17 10:27N 19°13' W 096°08'0 0.0
2017-Nov-17 10:00N 19°13' W 096°08'0 0.0
2017-Nov-17 09:30N 19°13' W 096°08'0 0.0
2017-Nov-17 09:00N 19°13' W 096°08'0 0.0
2017-Nov-17 08:27N 19°13' W 096°08'0 0.0
2017-Nov-17 08:00N 19°13' W 096°08'0 0.0
2017-Nov-17 07:27N 19°13' W 096°08'0 0.0
2017-Nov-17 07:00N 19°13' W 096°08'0 0.0
2017-Nov-17 06:30N 19°13' W 096°08'0 0.0
2017-Nov-17 05:57N 19°13' W 096°08'0 0.0
2017-Nov-17 05:27N 19°13' W 096°08'0 0.0
2017-Nov-17 05:00N 19°13' W 096°08'0 0.0
2017-Nov-17 04:27N 19°13' W 096°08'0 0.0
2017-Nov-17 03:54N 19°13' W 096°08'0 0.0
2017-Nov-17 03:30N 19°13' W 096°08'0 0.0
2017-Nov-17 03:00N 19°13' W 096°08'0 0.0
2017-Nov-17 02:18N 19°13' W 096°08'0 0.0
2017-Nov-17 01:57N 19°13' W 096°08'0 0.0
2017-Nov-17 01:27N 19°13' W 096°08'0 0.0
2017-Nov-17 01:00N 19°13' W 096°08'0 0.0
2017-Nov-17 00:30N 19°13' W 096°08'0 0.0
2017-Nov-17 00:00N 19°13' W 096°08'0 0.0
2017-Nov-16 23:30N 19°13' W 096°08'0 0.0
2017-Nov-16 22:42N 19°13' W 096°08'0 0.0
2017-Nov-16 22:15N 19°13' W 096°08'0 0.0
2017-Nov-16 22:00N 19°13' W 096°08'0 0.0
2017-Nov-16 21:27N 19°13' W 096°08'0 0.0
2017-Nov-16 20:57N 19°13' W 096°08'0 0.0
2017-Nov-16 20:30N 19°13' W 096°08'0 0.0
2017-Nov-16 19:57N 19°13' W 096°08'0 0.0
2017-Nov-16 19:30N 19°13' W 096°08'0 0.0
2017-Nov-16 18:51N 19°13' W 096°08'0 0.0
2017-Nov-16 18:30N 19°13' W 096°08'0 0.0
2017-Nov-16 18:00N 19°13' W 096°08'0 0.0
2017-Nov-16 17:30N 19°13' W 096°08'0 0.4
2017-Nov-16 17:00N 19°13' W 096°08'4 8.3
2017-Nov-16 16:30N 19°11' W 096°04'4 7.4
2017-Nov-16 16:00N 19°08' W 096°01'1 1.4
2017-Nov-16 15:26N 19°08' W 096°01'0 0.0
2017-Nov-16 14:56N 19°08' W 096°01'0 0.0
2017-Nov-16 14:26N 19°08' W 096°01'0 0.0
2017-Nov-16 13:56N 19°07' W 096°01'0 0.0
2017-Nov-16 13:26N 19°07' W 096°01'0 0.0
2017-Nov-16 12:56N 19°07' W 096°01'0 0.0
2017-Nov-16 12:26N 19°07' W 096°01'0 0.0
2017-Nov-16 11:56N 19°07' W 096°01'0 0.0
2017-Nov-16 11:26N 19°07' W 096°01'0 0.0
2017-Nov-16 10:56N 19°07' W 096°01'0 0.0
2017-Nov-16 10:26N 19°07' W 096°01'0 0.0
2017-Nov-16 09:56N 19°07' W 096°01'0 0.0
2017-Nov-16 09:26N 19°07' W 096°01'0 0.0
2017-Nov-16 08:56N 19°07' W 096°01'0 0.0
2017-Nov-16 08:20N 19°07' W 096°01'0 0.0
2017-Nov-16 07:56N 19°07' W 096°01'0 0.0
2017-Nov-16 07:26N 19°08' W 096°01'0 0.0
2017-Nov-16 06:56N 19°08' W 096°01'0 0.1
2017-Nov-16 06:26N 19°07' W 096°01'0 0.0
2017-Nov-16 05:56N 19°08' W 096°01'0 0.0
2017-Nov-16 05:26N 19°08' W 096°01'0 0.0
2017-Nov-16 04:56N 19°07' W 096°01'0 0.0
2017-Nov-16 04:26N 19°08' W 096°01'0 0.0
2017-Nov-16 03:56N 19°08' W 096°01'0 0.0
2017-Nov-16 03:26N 19°07' W 096°01'0 0.0
2017-Nov-16 02:56N 19°07' W 096°01'0 0.0
2017-Nov-16 02:26N 19°07' W 096°01'0 0.0
2017-Nov-16 01:50N 19°07' W 096°01'0 0.0
2017-Nov-16 01:26N 19°07' W 096°01'0 0.0
2017-Nov-16 00:56N 19°07' W 096°01'0 0.0
2017-Nov-16 00:26N 19°07' W 096°01'0 0.0
2017-Nov-15 23:56N 19°07' W 096°01'0 0.0
2017-Nov-15 23:26N 19°08' W 096°01'0 0.0
2017-Nov-15 22:50N 19°07' W 096°01'0 0.0
2017-Nov-15 22:26N 19°08' W 096°01'0 0.0
2017-Nov-15 21:56N 19°08' W 096°01'0 0.0
2017-Nov-15 21:26N 19°07' W 096°01'0 0.0
2017-Nov-15 20:50N 19°07' W 096°01'0 0.0
2017-Nov-15 20:26N 19°07' W 096°01'0 0.0
2017-Nov-15 19:56N 19°07' W 096°01'0 0.0
2017-Nov-15 19:26N 19°07' W 096°01'0 0.0
2017-Nov-15 18:56N 19°07' W 096°01'0 0.0
2017-Nov-15 18:26N 19°07' W 096°01'0 0.0
2017-Nov-15 17:56N 19°08' W 096°01'0 0.0
2017-Nov-15 17:26N 19°08' W 096°01'0 0.0
2017-Nov-15 16:56N 19°08' W 096°01'0 0.0
2017-Nov-15 16:26N 19°08' W 096°01'0 0.0
2017-Nov-15 15:56N 19°08' W 096°01'0 0.0
2017-Nov-15 15:26N 19°08' W 096°01'0 0.0
2017-Nov-15 14:56N 19°08' W 096°01'0 0.0
2017-Nov-15 14:20N 19°08' W 096°01'0 0.1
2017-Nov-15 13:56N 19°08' W 096°01'0 0.0
2017-Nov-15 13:26N 19°08' W 096°01'0 0.1
2017-Nov-15 12:56N 19°08' W 096°01'0 0.1
2017-Nov-15 12:20N 19°08' W 096°01'0 0.0
2017-Nov-15 11:50N 19°07' W 096°01'0 0.0
2017-Nov-15 11:26N 19°07' W 096°01'0 0.0
2017-Nov-15 10:56N 19°07' W 096°01'0 0.0
2017-Nov-15 10:26N 19°07' W 096°01'0 0.0
2017-Nov-15 09:50N 19°07' W 096°01'0 0.0
2017-Nov-15 09:14N 19°07' W 096°01'0 0.0
2017-Nov-15 08:56N 19°07' W 096°01'0 0.0
2017-Nov-15 08:26N 19°07' W 096°01'0 0.0
2017-Nov-15 07:56N 19°07' W 096°01'0 0.0
2017-Nov-15 07:26N 19°07' W 096°01'0 0.0
2017-Nov-15 06:50N 19°07' W 096°01'0 0.1
2017-Nov-15 06:20N 19°07' W 096°01'0 0.0
2017-Nov-15 05:56N 19°07' W 096°01'0 0.0
2017-Nov-15 05:20N 19°07' W 096°01'0 0.0
2017-Nov-15 04:50N 19°07' W 096°01'0 0.0
2017-Nov-15 04:26N 19°07' W 096°01'0 0.0
2017-Nov-15 03:56N 19°07' W 096°01'0 0.0
2017-Nov-15 03:26N 19°07' W 096°01'0 0.0
2017-Nov-15 02:56N 19°07' W 096°01'0 0.0
2017-Nov-15 02:26N 19°07' W 096°01'0 0.0
2017-Nov-15 01:44N 19°07' W 096°01'0 0.1
2017-Nov-15 01:26N 19°07' W 096°01'0 0.0
2017-Nov-15 00:50N 19°07' W 096°01'0 0.0
2017-Nov-15 00:26N 19°07' W 096°01'0 0.0
2017-Nov-14 23:56N 19°07' W 096°01'0 0.0
2017-Nov-14 23:26N 19°07' W 096°01'0 0.0
2017-Nov-14 22:56N 19°07' W 096°01'0 0.0
2017-Nov-14 22:26N 19°07' W 096°01'0 0.0
2017-Nov-14 21:56N 19°07' W 096°01'0 0.0
2017-Nov-14 21:26N 19°07' W 096°01'0 0.0
2017-Nov-14 20:56N 19°07' W 096°01'0 0.0
2017-Nov-14 20:26N 19°07' W 096°01'0 0.0
2017-Nov-14 19:56N 19°07' W 096°01'0 0.0
2017-Nov-14 19:26N 19°07' W 096°01'0 0.0
2017-Nov-14 18:56N 19°07' W 096°01'0 0.0
2017-Nov-14 18:26N 19°07' W 096°01'0 0.0
2017-Nov-14 17:56N 19°07' W 096°01'0 0.0
2017-Nov-14 17:26N 19°07' W 096°01'0 0.0
2017-Nov-14 16:56N 19°07' W 096°01'0 0.0
2017-Nov-14 16:26N 19°07' W 096°01'0 0.0
2017-Nov-14 15:56N 19°08' W 096°01'0 0.0
2017-Nov-14 15:26N 19°08' W 096°01'0 0.0
2017-Nov-14 14:56N 19°08' W 096°01'0 0.0
2017-Nov-14 14:26N 19°08' W 096°01'0 0.0
2017-Nov-14 13:56N 19°08' W 096°01'0 0.0
2017-Nov-14 13:26N 19°08' W 096°01'0 0.0
2017-Nov-14 12:56N 19°08' W 096°01'0 0.0
2017-Nov-14 12:26N 19°07' W 096°01'0 0.1
2017-Nov-14 11:44N 19°07' W 096°01'0 0.1
2017-Nov-14 11:26N 19°07' W 096°01'0 0.1
2017-Nov-14 10:56N 19°07' W 096°01'0 0.0
2017-Nov-14 10:08N 19°07' W 096°01'0 0.0
2017-Nov-14 09:56N 19°07' W 096°01'0 0.0
2017-Nov-14 09:26N 19°07' W 096°01'0 0.0
2017-Nov-14 08:56N 19°07' W 096°01'0 0.0
2017-Nov-14 08:26N 19°07' W 096°01'0 0.0
2017-Nov-14 07:50N 19°07' W 096°01'0 0.0
2017-Nov-14 07:26N 19°07' W 096°01'0 0.0
2017-Nov-14 06:56N 19°07' W 096°01'0 0.0
2017-Nov-14 06:26N 19°07' W 096°01'0 0.1
2017-Nov-14 05:56N 19°07' W 096°01'0 0.1
2017-Nov-14 05:26N 19°07' W 096°01'0 0.0
2017-Nov-14 04:56N 19°07' W 096°01'0 0.0
2017-Nov-14 04:20N 19°07' W 096°01'0 0.0
2017-Nov-14 03:56N 19°07' W 096°01'0 0.0
2017-Nov-14 03:26N 19°07' W 096°01'0 0.0
2017-Nov-14 02:56N 19°07' W 096°01'0 0.0
2017-Nov-14 02:26N 19°07' W 096°01'0 0.0
2017-Nov-14 01:32N 19°07' W 096°01'0 0.1
2017-Nov-14 01:26N 19°07' W 096°01'0 0.0
2017-Nov-14 00:50N 19°07' W 096°01'0 0.1
2017-Nov-14 00:26N 19°07' W 096°01'0 0.1
2017-Nov-13 23:56N 19°07' W 096°01'0 0.0
2017-Nov-13 22:50N 19°07' W 096°01'0 0.0
2017-Nov-13 22:26N 19°07' W 096°01'0 0.0
2017-Nov-13 21:56N 19°07' W 096°01'0 0.0
2017-Nov-13 01:56N 19°07' W 096°01'0 0.0
2017-Nov-13 01:26N 19°07' W 096°01'0 0.1
2017-Nov-13 00:56N 19°07' W 096°01'0 0.0
2017-Nov-13 00:26N 19°07' W 096°01'0 0.0
2017-Nov-12 23:56N 19°07' W 096°01'0 0.0
2017-Nov-12 23:26N 19°07' W 096°01'0 0.0
2017-Nov-12 22:56N 19°07' W 096°01'0 0.0
2017-Nov-12 22:26N 19°07' W 096°01'0 0.0
2017-Nov-12 21:50N 19°07' W 096°01'0 0.0
2017-Nov-12 21:26N 19°07' W 096°01'0 0.0
2017-Nov-12 20:56N 19°07' W 096°01'0 0.0
2017-Nov-12 20:26N 19°07' W 096°01'0 0.0
2017-Nov-12 19:56N 19°07' W 096°01'0 0.0
2017-Nov-12 19:26N 19°07' W 096°01'0 0.0
2017-Nov-12 18:56N 19°07' W 096°01'0 0.0
2017-Nov-12 18:26N 19°07' W 096°01'0 0.0
2017-Nov-12 17:56N 19°08' W 096°01'0 0.0
2017-Nov-12 17:20N 19°08' W 096°01'0 0.0
2017-Nov-12 16:56N 19°08' W 096°01'0 0.0
2017-Nov-12 16:26N 19°08' W 096°01'0 0.0
2017-Nov-12 15:56N 19°08' W 096°01'0 0.0
2017-Nov-12 15:26N 19°08' W 096°01'0 0.0
2017-Nov-12 14:56N 19°08' W 096°01'0 0.0
2017-Nov-12 14:20N 19°08' W 096°01'0 0.0
2017-Nov-12 13:56N 19°08' W 096°01'0 0.0
2017-Nov-12 13:20N 19°08' W 096°01'0 0.0
2017-Nov-12 12:56N 19°08' W 096°01'0 0.0
2017-Nov-12 12:26N 19°08' W 096°01'0 0.0
2017-Nov-12 11:56N 19°07' W 096°01'0 0.1
2017-Nov-12 11:26N 19°07' W 096°01'0 0.0
2017-Nov-12 10:56N 19°07' W 096°01'0 0.0
2017-Nov-12 10:26N 19°07' W 096°01'0 0.0
2017-Nov-12 09:56N 19°07' W 096°01'0 0.0
2017-Nov-12 09:26N 19°07' W 096°01'0 0.0
2017-Nov-12 08:56N 19°07' W 096°01'0 0.0
2017-Nov-12 08:26N 19°07' W 096°01'0 0.0
2017-Nov-12 07:56N 19°07' W 096°01'0 0.0
2017-Nov-12 07:26N 19°07' W 096°01'0 0.0
2017-Nov-12 06:56N 19°07' W 096°01'0 0.0
2017-Nov-12 06:26N 19°07' W 096°01'0 0.0
2017-Nov-12 05:56N 19°07' W 096°01'0 0.0
2017-Nov-12 05:26N 19°07' W 096°01'0 0.0
2017-Nov-12 04:56N 19°07' W 096°01'0 0.0
2017-Nov-12 04:26N 19°07' W 096°01'0 0.0
2017-Nov-12 03:56N 19°07' W 096°01'0 0.0
2017-Nov-12 03:26N 19°07' W 096°01'0 0.0
2017-Nov-12 02:50N 19°07' W 096°01'0 0.0
2017-Nov-12 02:20N 19°07' W 096°01'0 0.0
2017-Nov-12 01:56N 19°07' W 096°01'0 0.0
2017-Nov-12 01:26N 19°07' W 096°01'0 0.0
2017-Nov-12 00:56N 19°07' W 096°01'0 0.0
2017-Nov-12 00:26N 19°07' W 096°01'0 0.0
2017-Nov-11 23:56N 19°07' W 096°01'0 0.0
2017-Nov-11 23:26N 19°07' W 096°01'0 0.0
2017-Nov-11 22:56N 19°07' W 096°01'0 0.0
2017-Nov-11 22:26N 19°07' W 096°01'0 0.0
2017-Nov-11 21:56N 19°07' W 096°01'0 0.0
2017-Nov-11 21:26N 19°07' W 096°01'0 0.0
2017-Nov-11 20:56N 19°07' W 096°01'0 0.0
2017-Nov-11 20:26N 19°07' W 096°01'0 0.0
2017-Nov-11 19:56N 19°07' W 096°01'0 0.0
2017-Nov-11 19:26N 19°07' W 096°01'0 0.0
2017-Nov-11 18:56N 19°07' W 096°01'0 0.0
2017-Nov-11 18:14N 19°07' W 096°01'0 0.0
2017-Nov-11 17:56N 19°07' W 096°01'0 0.0
2017-Nov-11 17:26N 19°07' W 096°01'0 0.0
2017-Nov-11 16:50N 19°08' W 096°01'0 0.0
2017-Nov-11 16:20N 19°08' W 096°01'0 0.0
2017-Nov-11 15:56N 19°08' W 096°01'0 0.0
2017-Nov-11 15:26N 19°08' W 096°01'0 0.0
2017-Nov-11 14:56N 19°08' W 096°01'0 0.0
2017-Nov-11 14:26N 19°08' W 096°01'0 0.0
2017-Nov-11 13:56N 19°08' W 096°01'0 0.0
2017-Nov-11 13:26N 19°08' W 096°01'0 0.0
2017-Nov-11 12:56N 19°08' W 096°01'0 0.0
2017-Nov-11 12:26N 19°08' W 096°01'0 0.0
2017-Nov-11 11:56N 19°08' W 096°01'0 0.0
2017-Nov-11 11:26N 19°08' W 096°01'0 0.0
2017-Nov-11 10:56N 19°08' W 096°01'0 0.0
2017-Nov-11 10:26N 19°07' W 096°01'0 0.0
2017-Nov-11 09:56N 19°07' W 096°01'0 0.0
2017-Nov-11 09:20N 19°08' W 096°01'0 0.0
2017-Nov-11 08:56N 19°08' W 096°01'0 0.0
2017-Nov-11 08:20N 19°08' W 096°01'0 0.0
2017-Nov-11 07:44N 19°08' W 096°01'0 0.0
2017-Nov-11 07:26N 19°07' W 096°01'0 0.0
2017-Nov-11 06:56N 19°08' W 096°01'0 0.0
2017-Nov-11 06:26N 19°08' W 096°01'0 0.0
2017-Nov-11 05:56N 19°07' W 096°01'0 0.0
2017-Nov-11 05:26N 19°07' W 096°01'0 0.0
2017-Nov-11 04:56N 19°07' W 096°01'0 0.0
2017-Nov-11 04:26N 19°07' W 096°01'0 0.0
2017-Nov-11 03:56N 19°07' W 096°01'0 0.0
2017-Nov-11 03:26N 19°07' W 096°01'0 0.0
2017-Nov-11 02:56N 19°07' W 096°01'0 0.0
2017-Nov-11 02:26N 19°07' W 096°01'0 0.0
2017-Nov-11 01:56N 19°07' W 096°01'0 0.0
2017-Nov-11 01:26N 19°07' W 096°01'0 0.0
2017-Nov-11 00:56N 19°07' W 096°01'0 0.0
2017-Nov-11 00:26N 19°07' W 096°01'0 0.0
2017-Nov-10 23:56N 19°07' W 096°01'0 0.0
2017-Nov-10 23:20N 19°07' W 096°01'0 0.0
2017-Nov-10 22:56N 19°07' W 096°01'0 0.0
2017-Nov-10 22:26N 19°07' W 096°01'0 0.0
2017-Nov-10 21:55N 19°07' W 096°01'0 0.0
2017-Nov-10 21:26N 19°07' W 096°01'0 0.0
2017-Nov-10 20:50N 19°07' W 096°01'0 0.0
2017-Nov-10 20:26N 19°07' W 096°01'0 0.0
2017-Nov-10 19:56N 19°07' W 096°01'0 0.0
2017-Nov-10 19:26N 19°07' W 096°01'0 0.0
2017-Nov-10 18:44N 19°07' W 096°01'0 0.0
2017-Nov-10 18:23N 19°07' W 096°01'0 0.0
2017-Nov-10 17:56N 19°07' W 096°01'0 0.0
2017-Nov-10 17:26N 19°07' W 096°01'0 0.0
2017-Nov-10 16:56N 19°07' W 096°01'0 0.0
2017-Nov-10 16:26N 19°08' W 096°01'0 0.0
2017-Nov-10 15:55N 19°08' W 096°01'0 0.0
2017-Nov-10 15:26N 19°07' W 096°01'0 0.0
2017-Nov-10 14:56N 19°07' W 096°01'0 0.0
2017-Nov-10 14:26N 19°07' W 096°01'0 0.0
2017-Nov-10 13:56N 19°07' W 096°01'0 0.0
2017-Nov-10 13:20N 19°07' W 096°01'0 0.0
2017-Nov-10 12:56N 19°07' W 096°01'0 0.0
2017-Nov-10 12:26N 19°07' W 096°01'0 0.0
2017-Nov-10 11:56N 19°07' W 096°01'0 0.0
2017-Nov-10 11:26N 19°07' W 096°01'0 0.0
2017-Nov-10 10:56N 19°07' W 096°01'0 0.1
2017-Nov-10 10:19N 19°08' W 096°01'0 0.1
2017-Nov-10 09:56N 19°07' W 096°01'0 0.0
2017-Nov-10 09:26N 19°08' W 096°01'0 0.0
2017-Nov-10 08:56N 19°07' W 096°01'0 0.0
2017-Nov-10 08:26N 19°07' W 096°01'0 0.0
2017-Nov-10 07:56N 19°07' W 096°01'0 0.0
2017-Nov-10 07:26N 19°07' W 096°01'0 0.0
2017-Nov-10 06:56N 19°07' W 096°01'0 0.0
2017-Nov-10 06:26N 19°07' W 096°01'0 0.0
2017-Nov-10 05:50N 19°07' W 096°01'0 0.0
2017-Nov-10 05:26N 19°07' W 096°01'0 0.0
2017-Nov-10 04:50N 19°07' W 096°01'0 0.0
2017-Nov-10 04:26N 19°07' W 096°01'0 0.0
2017-Nov-10 03:55N 19°07' W 096°01'0 0.0
2017-Nov-10 03:25N 19°08' W 096°01'0 0.0
2017-Nov-10 02:55N 19°07' W 096°01'0 0.0
2017-Nov-10 02:25N 19°07' W 096°01'0 0.1
2017-Nov-10 01:56N 19°08' W 096°01'0 0.0
2017-Nov-10 01:26N 19°08' W 096°01'0 0.0
2017-Nov-10 00:55N 19°08' W 096°01'0 0.0
2017-Nov-10 00:25N 19°08' W 096°01'0 0.0
2017-Nov-09 23:56N 19°08' W 096°01'0 0.0
2017-Nov-09 23:26N 19°08' W 096°01'0 0.0
2017-Nov-09 22:55N 19°08' W 096°01'0 0.0
2017-Nov-09 22:25N 19°08' W 096°01'0 0.0
2017-Nov-09 21:55N 19°08' W 096°01'0 0.0
2017-Nov-09 21:25N 19°08' W 096°01'0 0.0
2017-Nov-09 20:56N 19°08' W 096°01'0 0.0
2017-Nov-09 20:20N 19°08' W 096°01'0 0.0
2017-Nov-09 19:56N 19°08' W 096°01'0 0.0
2017-Nov-09 19:25N 19°08' W 096°01'0 0.0
2017-Nov-09 18:55N 19°08' W 096°01'0 0.0
2017-Nov-09 18:25N 19°08' W 096°01'0 0.0
2017-Nov-09 17:55N 19°08' W 096°01'0 0.0
2017-Nov-09 17:25N 19°08' W 096°01'0 0.0
2017-Nov-09 16:55N 19°08' W 096°01'0 0.0
2017-Nov-09 16:25N 19°08' W 096°01'0 0.0
2017-Nov-09 15:55N 19°08' W 096°01'0 0.0
2017-Nov-09 15:25N 19°08' W 096°01'0 0.1
2017-Nov-09 14:55N 19°08' W 096°01'0 0.0
2017-Nov-09 14:25N 19°08' W 096°01'0 0.0
2017-Nov-09 13:55N 19°08' W 096°01'0 0.0
2017-Nov-09 13:19N 19°08' W 096°01'0 0.0
2017-Nov-09 12:55N 19°08' W 096°01'0 0.0
2017-Nov-09 12:19N 19°08' W 096°01'0 0.0
2017-Nov-09 11:55N 19°08' W 096°01'0 0.0
2017-Nov-09 11:25N 19°08' W 096°01'0 0.0
2017-Nov-09 10:55N 19°08' W 096°01'0 0.0
2017-Nov-09 10:25N 19°08' W 096°01'0 0.0
2017-Nov-09 09:55N 19°08' W 096°01'0 0.0
2017-Nov-09 09:25N 19°08' W 096°01'0 0.0
2017-Nov-09 08:55N 19°08' W 096°01'0 0.0
2017-Nov-09 08:25N 19°08' W 096°01'0 0.0
2017-Nov-09 07:56N 19°08' W 096°01'0 0.0
2017-Nov-09 07:25N 19°08' W 096°01'0 0.1
2017-Nov-09 06:55N 19°08' W 096°01'0 0.0
2017-Nov-09 06:25N 19°08' W 096°01'0 0.0
2017-Nov-09 05:55N 19°08' W 096°01'0 0.0
2017-Nov-09 05:25N 19°08' W 096°01'0 0.0
2017-Nov-09 04:55N 19°08' W 096°01'0 0.0
2017-Nov-09 04:25N 19°08' W 096°01'0 0.0
2017-Nov-09 03:49N 19°08' W 096°01'0 0.0
2017-Nov-09 03:25N 19°08' W 096°01'0 0.1
2017-Nov-09 02:55N 19°08' W 096°01'0 0.1
2017-Nov-09 02:25N 19°08' W 096°01'0 0.1
2017-Nov-09 01:55N 19°08' W 096°01'0 0.0
2017-Nov-09 01:25N 19°08' W 096°01'0 0.0
2017-Nov-09 00:55N 19°08' W 096°01'0 0.0
2017-Nov-09 00:25N 19°08' W 096°01'0 0.0
2017-Nov-08 23:55N 19°08' W 096°01'0 0.0
2017-Nov-08 23:19N 19°08' W 096°01'0 0.0
2017-Nov-08 22:55N 19°08' W 096°01'0 0.0
2017-Nov-08 22:25N 19°08' W 096°01'0 0.0
2017-Nov-08 21:55N 19°08' W 096°01'0 0.0
2017-Nov-08 21:25N 19°08' W 096°01'0 0.0
2017-Nov-08 20:55N 19°08' W 096°01'0 0.0
2017-Nov-08 20:25N 19°08' W 096°01'0 0.0
2017-Nov-08 19:55N 19°08' W 096°01'0 0.0
2017-Nov-08 19:25N 19°08' W 096°01'0 0.0
2017-Nov-08 18:55N 19°08' W 096°01'0 0.0
2017-Nov-08 18:25N 19°08' W 096°01'0 0.0
2017-Nov-08 17:55N 19°08' W 096°01'0 0.0
2017-Nov-08 17:25N 19°08' W 096°01'0 0.0
2017-Nov-08 16:55N 19°08' W 096°01'0 0.0
2017-Nov-08 16:25N 19°08' W 096°01'0 0.0
2017-Nov-08 15:55N 19°08' W 096°01'0 0.0
2017-Nov-08 15:28N 19°08' W 096°01'0 0.0
2017-Nov-08 14:55N 19°08' W 096°01'0 0.1
2017-Nov-08 14:25N 19°08' W 096°01'0 0.1
2017-Nov-08 13:55N 19°08' W 096°01'0 0.0
2017-Nov-08 13:25N 19°08' W 096°01'0 0.0
2017-Nov-08 12:55N 19°08' W 096°01'0 0.0
2017-Nov-08 12:25N 19°08' W 096°01'0 0.0
2017-Nov-08 11:55N 19°08' W 096°01'0 0.0
2017-Nov-08 11:25N 19°08' W 096°01'0 0.0
2017-Nov-08 10:55N 19°08' W 096°01'0 0.1
2017-Nov-08 10:25N 19°08' W 096°01'0 0.0
2017-Nov-08 09:55N 19°08' W 096°01'0 0.0
2017-Nov-08 09:25N 19°08' W 096°01'0 0.0
2017-Nov-08 08:55N 19°08' W 096°01'0 0.0
2017-Nov-08 08:25N 19°08' W 096°01'0 0.2
2017-Nov-08 07:55N 19°08' W 096°01'0 0.1
2017-Nov-08 07:25N 19°08' W 096°01'0 0.0
2017-Nov-08 06:55N 19°08' W 096°01'0 0.0
2017-Nov-08 06:25N 19°08' W 096°01'0 0.0
2017-Nov-08 05:55N 19°08' W 096°01'0 0.0
2017-Nov-08 05:25N 19°08' W 096°01'0 0.0
2017-Nov-08 04:55N 19°08' W 096°01'0 0.0
2017-Nov-08 04:25N 19°08' W 096°01'0 0.0
2017-Nov-08 03:55N 19°08' W 096°01'0 0.0
2017-Nov-08 03:25N 19°08' W 096°01'0 0.0
2017-Nov-08 02:55N 19°08' W 096°01'0 0.0
2017-Nov-08 02:25N 19°08' W 096°01'0 0.0
2017-Nov-08 01:49N 19°08' W 096°01'0 0.0
2017-Nov-08 01:25N 19°08' W 096°01'0 0.0
2017-Nov-08 00:55N 19°08' W 096°01'0 0.0
2017-Nov-08 00:25N 19°08' W 096°01'0 0.0
2017-Nov-07 23:55N 19°08' W 096°01'0 0.0
2017-Nov-07 23:25N 19°08' W 096°01'0 0.0
2017-Nov-07 22:55N 19°08' W 096°01'  

Dump ship's entire track history